createdAt,value
2018-01-22T00:00:00.936Z,81.20
2018-01-22T00:01:02.791Z,81.57
2018-01-22T00:02:04.645Z,81.01
2018-01-22T00:03:06.439Z,81.01
2018-01-22T00:04:08.247Z,81.01
2018-01-22T00:05:10.116Z,80.72
2018-01-22T00:06:11.975Z,80.91
2018-01-22T00:07:13.837Z,80.82
2018-01-22T00:08:27.983Z,80.82
2018-01-22T00:09:29.849Z,80.91
2018-01-22T00:10:31.734Z,81.29
2018-01-22T00:11:33.606Z,81.15
2018-01-22T00:12:35.404Z,81.34
2018-01-22T00:13:37.223Z,81.63
2018-01-22T00:14:39.107Z,81.44
2018-01-22T00:15:40.985Z,81.76
2018-01-22T00:16:42.841Z,81.48
2018-01-22T00:17:56.994Z,81.63
2018-01-22T00:18:58.876Z,81.63
2018-01-22T00:20:00.754Z,81.48
2018-01-22T00:21:02.608Z,81.10
2018-01-22T00:22:04.399Z,81.20
2018-01-22T00:23:06.198Z,81.29
2018-01-22T00:24:08.058Z,81.15
2018-01-22T00:25:09.935Z,81.15
2018-01-22T00:26:11.795Z,81.06
2018-01-22T00:27:25.995Z,81.25
2018-01-22T00:28:27.872Z,81.53
2018-01-22T00:29:29.733Z,81.25
2018-01-22T00:30:31.587Z,81.44
2018-01-22T00:31:33.388Z,81.15
2018-01-22T00:32:35.182Z,81.53
2018-01-22T00:33:37.041Z,81.44
2018-01-22T00:34:38.890Z,81.53
2018-01-22T00:35:40.750Z,81.63
2018-01-22T00:36:54.900Z,81.34
2018-01-22T00:37:56.783Z,81.63
2018-01-22T00:38:58.666Z,82.01
2018-01-22T00:40:00.545Z,81.92
2018-01-22T00:41:02.343Z,82.20
2018-01-22T00:42:04.158Z,81.82
2018-01-22T00:43:06.034Z,82.01
2018-01-22T00:44:07.893Z,82.01
2018-01-22T00:45:09.747Z,82.01
2018-01-22T00:46:23.872Z,81.63
2018-01-22T00:47:25.737Z,82.10
2018-01-22T00:48:27.590Z,82.39
2018-01-22T00:49:29.448Z,82.01
2018-01-22T00:50:31.235Z,82.01
2018-01-22T00:51:33.027Z,81.82
2018-01-22T00:52:34.886Z,81.92
2018-01-22T00:53:36.769Z,82.01
2018-01-22T00:54:38.645Z,81.87
2018-01-22T00:55:52.770Z,82.10
2018-01-22T00:56:54.635Z,81.63
2018-01-22T00:57:56.512Z,82.34
2018-01-22T00:58:58.371Z,82.06
2018-01-22T01:00:00.166Z,82.34
2018-01-22T01:01:01.960Z,82.72
2018-01-22T01:02:03.817Z,82.82
2018-01-22T01:03:05.678Z,82.91
2018-01-22T01:04:07.557Z,82.72
2018-01-22T01:05:21.706Z,82.72
2018-01-22T01:06:23.563Z,82.63
2018-01-22T01:07:25.424Z,82.72
2018-01-22T01:08:27.280Z,82.53
2018-01-22T01:09:29.095Z,82.82
2018-01-22T01:10:30.903Z,82.82
2018-01-22T01:11:32.765Z,82.72
2018-01-22T01:12:34.647Z,82.53
2018-01-22T01:13:36.506Z,82.82
2018-01-22T01:14:50.655Z,82.63
2018-01-22T01:15:52.538Z,83.10
2018-01-22T01:16:54.422Z,82.72
2018-01-22T01:17:56.300Z,82.63
2018-01-22T01:18:58.116Z,82.63
2018-01-22T01:19:59.933Z,82.82
2018-01-22T01:21:01.812Z,82.82
2018-01-22T01:22:03.675Z,82.63
2018-01-22T01:23:05.551Z,82.63
2018-01-22T01:24:19.710Z,82.63
2018-01-22T01:25:21.582Z,82.82
2018-01-22T01:26:23.468Z,82.82
2018-01-22T01:27:25.347Z,82.72
2018-01-22T01:28:27.155Z,82.82
2018-01-22T01:29:28.954Z,82.82
2018-01-22T01:30:30.831Z,82.82
2018-01-22T01:31:32.697Z,82.63
2018-01-22T01:32:34.576Z,82.63
2018-01-22T01:33:48.700Z,82.91
2018-01-22T01:34:50.557Z,82.91
2018-01-22T01:35:52.413Z,83.10
2018-01-22T01:36:54.275Z,82.82
2018-01-22T01:37:56.068Z,82.72
2018-01-22T01:38:57.878Z,83.20
2018-01-22T01:39:59.744Z,83.58
2018-01-22T01:41:01.624Z,83.67
2018-01-22T01:42:03.504Z,83.48
2018-01-22T01:43:17.649Z,83.39
2018-01-22T01:44:19.527Z,83.58
2018-01-22T01:45:21.389Z,83.10
2018-01-22T01:46:23.272Z,82.53
2018-01-22T01:47:25.078Z,82.72
2018-01-22T01:48:26.875Z,82.91
2018-01-22T01:49:28.757Z,82.91
2018-01-22T01:50:30.617Z,82.91
2018-01-22T01:51:32.496Z,82.72
2018-01-22T01:52:46.645Z,82.82
2018-01-22T01:53:48.529Z,82.63
2018-01-22T01:54:50.400Z,82.82
2018-01-22T01:55:52.258Z,82.91
2018-01-22T01:56:54.051Z,82.72
2018-01-22T01:57:55.865Z,82.34
2018-01-22T01:58:57.722Z,82.06
2018-01-22T01:59:59.585Z,82.44
2018-01-22T02:01:01.460Z,81.68
2018-01-22T02:02:15.658Z,82.15
2018-01-22T02:03:17.536Z,82.21
2018-01-22T02:04:19.403Z,82.50
2018-01-22T02:05:21.285Z,82.21
2018-01-22T02:06:23.074Z,82.31
2018-01-22T02:07:24.885Z,82.50
2018-01-22T02:08:26.742Z,82.40
2018-01-22T02:09:28.623Z,82.12
2018-01-22T02:10:30.505Z,81.74
2018-01-22T02:11:44.654Z,81.93
2018-01-22T02:12:46.513Z,82.12
2018-01-22T02:13:48.394Z,82.02
2018-01-22T02:14:50.273Z,82.21
2018-01-22T02:15:52.067Z,81.74
2018-01-22T02:16:53.886Z,81.55
2018-01-22T02:17:55.767Z,81.36
2018-01-22T02:18:57.649Z,81.83
2018-01-22T02:19:59.504Z,81.83
2018-01-22T02:21:13.647Z,81.74
2018-01-22T02:22:15.510Z,81.74
2018-01-22T02:23:17.391Z,82.02
2018-01-22T02:24:19.280Z,82.21
2018-01-22T02:25:21.076Z,82.59
2018-01-22T02:26:22.872Z,82.78
2018-01-22T02:27:24.750Z,83.06
2018-01-22T02:28:26.617Z,82.87
2018-01-22T02:29:28.488Z,82.87
2018-01-22T02:30:42.680Z,82.68
2018-01-22T02:31:44.541Z,82.87
2018-01-22T02:32:46.423Z,82.91
2018-01-22T02:33:48.298Z,82.63
2018-01-22T02:34:50.094Z,82.72
2018-01-22T02:35:51.913Z,82.31
2018-01-22T02:36:53.798Z,82.59
2018-01-22T02:37:55.670Z,82.97
2018-01-22T02:38:57.529Z,82.31
2018-01-22T02:40:11.660Z,82.21
2018-01-22T02:41:13.531Z,82.21
2018-01-22T02:42:15.393Z,82.34
2018-01-22T02:43:17.275Z,82.21
2018-01-22T02:44:19.090Z,82.53
2018-01-22T02:45:20.905Z,82.44
2018-01-22T02:46:22.760Z,81.68
2018-01-22T02:47:24.636Z,81.59
2018-01-22T02:48:26.494Z,82.34
2018-01-22T02:49:40.669Z,82.34
2018-01-22T02:50:42.542Z,82.44
2018-01-22T02:51:44.399Z,82.25
2018-01-22T02:52:46.257Z,82.06
2018-01-22T02:53:48.052Z,81.96
2018-01-22T02:54:49.849Z,81.77
2018-01-22T02:55:51.697Z,81.96
2018-01-22T02:56:53.554Z,82.25
2018-01-22T02:57:55.414Z,82.25
2018-01-22T02:59:09.556Z,82.15
2018-01-22T03:00:11.416Z,82.25
2018-01-22T03:01:13.275Z,81.77
2018-01-22T03:02:15.151Z,82.34
2018-01-22T03:03:16.947Z,82.15
2018-01-22T03:04:18.761Z,81.96
2018-01-22T03:05:20.638Z,81.96
2018-01-22T03:06:22.502Z,81.49
2018-01-22T03:07:24.371Z,82.15
2018-01-22T03:08:38.503Z,81.87
2018-01-22T03:09:40.377Z,81.96
2018-01-22T03:10:42.234Z,81.77
2018-01-22T03:11:44.089Z,81.87
2018-01-22T03:12:45.887Z,82.06
2018-01-22T03:13:47.684Z,81.77
2018-01-22T03:14:49.559Z,82.15
2018-01-22T03:15:51.421Z,81.96
2018-01-22T03:16:53.342Z,82.06
2018-01-22T03:18:07.433Z,82.15
2018-01-22T03:19:09.292Z,81.96
2018-01-22T03:20:11.148Z,82.25
2018-01-22T03:21:13.008Z,81.68
2018-01-22T03:22:14.819Z,81.96
2018-01-22T03:23:16.613Z,83.20
2018-01-22T03:24:18.472Z,83.01
2018-01-22T03:25:20.351Z,82.53
2018-01-22T03:26:22.210Z,82.34
2018-01-22T03:27:36.330Z,81.77
2018-01-22T03:28:38.192Z,82.34
2018-01-22T03:29:40.045Z,83.39
2018-01-22T03:30:41.900Z,83.67
2018-01-22T03:31:43.698Z,83.86
2018-01-22T03:32:45.509Z,82.63
2018-01-22T03:33:47.371Z,82.72
2018-01-22T03:34:49.257Z,82.87
2018-01-22T03:35:51.133Z,82.31
2018-01-22T03:37:05.292Z,82.68
2018-01-22T03:38:07.168Z,82.78
2018-01-22T03:39:09.047Z,83.15
2018-01-22T03:40:10.924Z,82.97
2018-01-22T03:41:12.728Z,83.72
2018-01-22T03:42:14.528Z,83.44
2018-01-22T03:43:16.403Z,83.53
2018-01-22T03:44:18.263Z,83.58
2018-01-22T03:45:20.141Z,83.10
2018-01-22T03:46:34.288Z,83.20
2018-01-22T03:47:36.138Z,83.29
2018-01-22T03:48:38.001Z,83.01
2018-01-22T03:49:39.876Z,83.01
2018-01-22T03:50:41.670Z,83.01
2018-01-22T03:51:43.462Z,82.82
2018-01-22T03:52:45.321Z,82.82
2018-01-22T03:53:47.199Z,82.91
2018-01-22T03:54:49.060Z,82.82
2018-01-22T03:56:03.209Z,82.82
2018-01-22T03:57:05.088Z,82.72
2018-01-22T03:58:06.968Z,82.72
2018-01-22T03:59:08.846Z,82.91
2018-01-22T04:00:10.643Z,82.72
2018-01-22T04:01:12.456Z,83.01
2018-01-22T04:02:14.313Z,82.82
2018-01-22T04:03:16.189Z,82.72
2018-01-22T04:04:18.047Z,82.91
2018-01-22T04:05:32.242Z,82.91
2018-01-22T04:06:34.128Z,82.53
2018-01-22T04:07:35.983Z,82.91
2018-01-22T04:08:37.842Z,82.72
2018-01-22T04:09:39.637Z,82.82
2018-01-22T04:10:41.422Z,82.82
2018-01-22T04:11:43.277Z,82.63
2018-01-22T04:12:45.132Z,83.29
2018-01-22T04:13:46.992Z,83.15
2018-01-22T04:15:01.131Z,83.44
2018-01-22T04:16:02.986Z,83.44
2018-01-22T04:17:04.850Z,84.10
2018-01-22T04:18:06.699Z,83.63
2018-01-22T04:19:08.495Z,83.72
2018-01-22T04:20:10.289Z,83.82
2018-01-22T04:21:12.170Z,83.91
2018-01-22T04:22:14.050Z,83.63
2018-01-22T04:23:15.909Z,83.63
2018-01-22T04:24:30.061Z,83.58
2018-01-22T04:25:31.916Z,83.25
2018-01-22T04:26:33.789Z,83.29
2018-01-22T04:27:35.645Z,82.40
2018-01-22T04:28:37.446Z,82.87
2018-01-22T04:29:39.263Z,82.78
2018-01-22T04:30:41.136Z,82.78
2018-01-22T04:31:42.998Z,82.59
2018-01-22T04:32:44.852Z,82.87
2018-01-22T04:33:59.042Z,82.78
2018-01-22T04:35:00.900Z,82.97
2018-01-22T04:36:02.752Z,82.50
2018-01-22T04:37:04.607Z,82.59
2018-01-22T04:38:06.398Z,82.59
2018-01-22T04:39:08.196Z,83.15
2018-01-22T04:40:10.076Z,82.78
2018-01-22T04:41:11.956Z,82.87
2018-01-22T04:42:13.837Z,82.97
2018-01-22T04:43:27.983Z,83.34
2018-01-22T04:44:29.856Z,83.06
2018-01-22T04:45:31.716Z,83.44
2018-01-22T04:46:33.569Z,83.44
2018-01-22T04:47:35.361Z,82.97
2018-01-22T04:48:37.159Z,83.63
2018-01-22T04:49:39.037Z,83.44
2018-01-22T04:50:40.921Z,83.44
2018-01-22T04:51:42.800Z,83.53
2018-01-22T04:52:56.995Z,83.34
2018-01-22T04:53:58.851Z,83.63
2018-01-22T04:55:00.730Z,83.91
2018-01-22T04:56:02.582Z,83.72
2018-01-22T04:57:04.385Z,82.78
2018-01-22T04:58:06.194Z,82.87
2018-01-22T04:59:08.056Z,82.31
2018-01-22T05:00:09.933Z,82.40
2018-01-22T05:01:11.787Z,82.40
2018-01-22T05:02:25.969Z,81.74
2018-01-22T05:03:27.845Z,82.12
2018-01-22T05:04:29.701Z,82.02
2018-01-22T05:05:31.576Z,82.02
2018-01-22T05:06:33.367Z,81.93
2018-01-22T05:07:35.160Z,81.83
2018-01-22T05:08:37.019Z,81.93
2018-01-22T05:09:38.896Z,81.93
2018-01-22T05:10:40.713Z,81.93
2018-01-22T05:11:54.854Z,82.21
2018-01-22T05:12:56.715Z,81.93
2018-01-22T05:13:58.597Z,81.55
2018-01-22T05:15:00.473Z,81.45
2018-01-22T05:16:02.265Z,81.45
2018-01-22T05:17:04.056Z,81.36
2018-01-22T05:18:05.912Z,81.55
2018-01-22T05:19:07.771Z,81.83
2018-01-22T05:20:09.623Z,81.74
2018-01-22T05:21:23.752Z,81.55
2018-01-22T05:22:25.628Z,81.45
2018-01-22T05:23:27.492Z,81.41
2018-01-22T05:24:29.365Z,81.60
2018-01-22T05:25:31.160Z,81.88
2018-01-22T05:26:32.962Z,81.98
2018-01-22T05:27:34.841Z,81.88
2018-01-22T05:28:36.692Z,81.98
2018-01-22T05:29:38.548Z,81.70
2018-01-22T05:30:52.669Z,81.98
2018-01-22T05:31:54.528Z,81.98
2018-01-22T05:32:56.405Z,81.88
2018-01-22T05:33:58.258Z,81.88
2018-01-22T05:35:00.054Z,81.79
2018-01-22T05:36:01.841Z,82.07
2018-01-22T05:37:03.699Z,81.79
2018-01-22T05:38:05.579Z,82.07
2018-01-22T05:39:07.459Z,82.07
2018-01-22T05:40:21.579Z,81.41
2018-01-22T05:41:23.435Z,81.41
2018-01-22T05:42:25.289Z,81.64
2018-01-22T05:43:27.143Z,81.36
2018-01-22T05:44:28.935Z,81.26
2018-01-22T05:45:30.732Z,80.88
2018-01-22T05:46:32.573Z,80.75
2018-01-22T05:47:34.447Z,81.07
2018-01-22T05:48:36.310Z,80.98
2018-01-22T05:49:50.452Z,80.79
2018-01-22T05:50:52.306Z,81.17
2018-01-22T05:51:54.170Z,80.69
2018-01-22T05:52:56.045Z,80.88
2018-01-22T05:53:57.838Z,80.69
2018-01-22T05:54:59.632Z,80.79
2018-01-22T05:56:01.511Z,80.88
2018-01-22T05:57:03.387Z,80.60
2018-01-22T05:58:05.244Z,80.88
2018-01-22T05:59:19.372Z,80.32
2018-01-22T06:00:21.245Z,80.51
2018-01-22T06:01:23.108Z,80.41
2018-01-22T06:02:24.984Z,80.51
2018-01-22T06:03:26.776Z,80.69
2018-01-22T06:04:28.572Z,80.41
2018-01-22T06:05:30.446Z,80.13
2018-01-22T06:06:32.311Z,80.04
2018-01-22T06:07:34.224Z,79.28
2018-01-22T06:08:48.407Z,79.28
2018-01-22T06:09:50.270Z,79.37
2018-01-22T06:10:52.144Z,79.18
2018-01-22T06:11:53.995Z,79.56
2018-01-22T06:12:55.794Z,79.66
2018-01-22T06:13:57.580Z,79.56
2018-01-22T06:14:59.441Z,79.56
2018-01-22T06:16:01.301Z,79.66
2018-01-22T06:17:03.184Z,79.85
2018-01-22T06:18:17.330Z,79.56
2018-01-22T06:19:19.211Z,79.18
2018-01-22T06:20:21.082Z,79.56
2018-01-22T06:21:22.940Z,78.99
2018-01-22T06:22:24.733Z,78.80
2018-01-22T06:23:26.549Z,78.80
2018-01-22T06:24:28.427Z,78.90
2018-01-22T06:25:30.287Z,79.18
2018-01-22T06:26:32.164Z,79.18
2018-01-22T06:27:46.309Z,78.71
2018-01-22T06:28:48.165Z,78.71
2018-01-22T06:29:50.020Z,78.80
2018-01-22T06:30:51.876Z,78.71
2018-01-22T06:31:53.677Z,78.52
2018-01-22T06:32:55.495Z,78.52
2018-01-22T06:33:57.372Z,78.52
2018-01-22T06:34:59.233Z,78.71
2018-01-22T06:36:01.117Z,79.09
2018-01-22T06:37:15.237Z,78.80
2018-01-22T06:38:17.094Z,79.09
2018-01-22T06:39:18.953Z,77.95
2018-01-22T06:40:20.808Z,78.14
2018-01-22T06:41:22.598Z,78.42
2018-01-22T06:42:24.399Z,78.52
2018-01-22T06:43:26.275Z,78.14
2018-01-22T06:44:28.133Z,78.23
2018-01-22T06:45:29.987Z,78.23
2018-01-22T06:46:44.111Z,78.33
2018-01-22T06:47:45.974Z,78.52
2018-01-22T06:48:47.850Z,78.33
2018-01-22T06:49:49.704Z,78.23
2018-01-22T06:50:51.534Z,78.14
2018-01-22T06:51:53.328Z,78.23
2018-01-22T06:52:55.186Z,78.14
2018-01-22T06:53:57.052Z,77.95
2018-01-22T06:54:58.933Z,77.86
2018-01-22T06:56:13.086Z,78.05
2018-01-22T06:57:14.943Z,77.86
2018-01-22T06:58:16.803Z,77.86
2018-01-22T06:59:18.656Z,77.58
2018-01-22T07:00:20.461Z,77.29
2018-01-22T07:01:22.256Z,77.48
2018-01-22T07:02:24.135Z,77.20
2018-01-22T07:03:25.994Z,76.91
2018-01-22T07:04:27.853Z,77.10
2018-01-22T07:05:42.028Z,76.91
2018-01-22T07:06:43.887Z,77.39
2018-01-22T07:07:45.771Z,77.20
2018-01-22T07:08:47.673Z,77.29
2018-01-22T07:09:49.433Z,77.39
2018-01-22T07:10:51.251Z,77.67
2018-01-22T07:11:53.133Z,77.58
2018-01-22T07:12:55.011Z,77.29
2018-01-22T07:13:56.872Z,77.67
2018-01-22T07:15:11.003Z,76.53
2018-01-22T07:16:12.890Z,76.53
2018-01-22T07:17:14.745Z,76.15
2018-01-22T07:18:16.633Z,75.96
2018-01-22T07:19:18.457Z,76.53
2018-01-22T07:20:20.272Z,76.72
2018-01-22T07:21:22.129Z,76.82
2018-01-22T07:22:23.985Z,77.48
2018-01-22T07:23:25.844Z,77.58
2018-01-22T07:24:40.023Z,78.23
2018-01-22T07:25:41.908Z,77.76
2018-01-22T07:26:43.791Z,77.76
2018-01-22T07:27:45.653Z,77.76
2018-01-22T07:28:47.455Z,77.20
2018-01-22T07:29:49.247Z,77.39
2018-01-22T07:30:51.107Z,77.58
2018-01-22T07:31:52.989Z,77.39
2018-01-22T07:32:54.845Z,77.10
2018-01-22T07:34:08.978Z,77.39
2018-01-22T07:35:10.834Z,77.10
2018-01-22T07:36:12.698Z,77.20
2018-01-22T07:37:14.557Z,76.82
2018-01-22T07:38:16.376Z,76.63
2018-01-22T07:39:18.171Z,76.34
2018-01-22T07:40:20.030Z,76.53
2018-01-22T07:41:21.892Z,76.53
2018-01-22T07:42:23.757Z,76.67
2018-01-22T07:43:37.956Z,76.57
2018-01-22T07:44:39.840Z,76.00
2018-01-22T07:45:41.722Z,76.38
2018-01-22T07:46:43.588Z,75.72
2018-01-22T07:47:45.394Z,75.91
2018-01-22T07:48:47.213Z,75.81
2018-01-22T07:49:49.085Z,75.87
2018-01-22T07:50:50.969Z,75.21
2018-01-22T07:51:52.853Z,75.78
2018-01-22T07:53:07.004Z,75.68
2018-01-22T07:54:08.865Z,75.59
2018-01-22T07:55:10.748Z,75.59
2018-01-22T07:56:12.606Z,75.78
2018-01-22T07:57:14.412Z,76.53
2018-01-22T07:58:16.225Z,76.34
2018-01-22T07:59:18.091Z,75.87
2018-01-22T08:00:19.956Z,76.53
2018-01-22T08:01:21.838Z,76.44
2018-01-22T08:02:35.962Z,75.59
2018-01-22T08:03:37.826Z,75.78
2018-01-22T08:04:39.702Z,75.96
2018-01-22T08:05:41.598Z,76.53
2018-01-22T08:06:43.400Z,76.63
2018-01-22T08:07:45.222Z,76.15
2018-01-22T08:08:47.106Z,76.82
2018-01-22T08:09:48.964Z,76.63
2018-01-22T08:10:50.830Z,76.82
2018-01-22T08:12:05.013Z,76.15
2018-01-22T08:13:06.901Z,76.72
2018-01-22T08:14:08.760Z,75.96
2018-01-22T08:15:10.624Z,75.78
2018-01-22T08:16:12.444Z,75.40
2018-01-22T08:17:14.242Z,75.49
2018-01-22T08:18:16.103Z,75.49
2018-01-22T08:19:17.967Z,74.64
2018-01-22T08:20:19.852Z,74.83
2018-01-22T08:21:33.963Z,75.68
2018-01-22T08:22:35.847Z,75.59
2018-01-22T08:23:37.708Z,75.78
2018-01-22T08:24:39.573Z,75.49
2018-01-22T08:25:41.374Z,75.96
2018-01-22T08:26:43.172Z,75.59
2018-01-22T08:27:45.054Z,75.96
2018-01-22T08:28:46.922Z,76.34
2018-01-22T08:29:48.804Z,76.82
2018-01-22T08:31:03.046Z,77.10
2018-01-22T08:32:04.846Z,77.10
2018-01-22T08:33:06.705Z,77.20
2018-01-22T08:34:08.567Z,77.01
2018-01-22T08:35:10.370Z,77.29
2018-01-22T08:36:12.171Z,77.67
2018-01-22T08:37:14.033Z,78.23
2018-01-22T08:38:15.916Z,77.86
2018-01-22T08:39:17.780Z,77.58
2018-01-22T08:40:31.983Z,77.39
2018-01-22T08:41:33.869Z,77.76
2018-01-22T08:42:35.754Z,77.95
2018-01-22T08:43:37.616Z,77.95
2018-01-22T08:44:39.418Z,77.20
2018-01-22T08:45:41.240Z,77.29
2018-01-22T08:46:43.134Z,77.01
2018-01-22T08:47:45.017Z,76.72
2018-01-22T08:48:46.901Z,76.72
2018-01-22T08:50:01.059Z,77.01
2018-01-22T08:51:02.937Z,77.20
2018-01-22T08:52:04.799Z,76.82
2018-01-22T08:53:06.663Z,76.44
2018-01-22T08:54:08.467Z,75.87
2018-01-22T08:55:10.291Z,75.78
2018-01-22T08:56:12.172Z,75.78
2018-01-22T08:57:14.038Z,75.62
2018-01-22T08:58:15.896Z,75.81
2018-01-22T08:59:30.032Z,75.81
2018-01-22T09:00:31.893Z,75.05
2018-01-22T09:01:33.753Z,74.77
2018-01-22T09:02:35.615Z,74.87
2018-01-22T09:03:37.412Z,75.34
2018-01-22T09:04:39.211Z,75.05
2018-01-22T09:05:41.075Z,75.05
2018-01-22T09:06:42.940Z,74.77
2018-01-22T09:07:44.797Z,74.77
2018-01-22T09:08:58.979Z,75.15
2018-01-22T09:10:00.861Z,74.40
2018-01-22T09:11:02.727Z,73.92
2018-01-22T09:12:04.588Z,74.05
2018-01-22T09:13:06.389Z,73.77
2018-01-22T09:14:08.188Z,73.77
2018-01-22T09:15:10.075Z,73.01
2018-01-22T09:16:11.959Z,73.01
2018-01-22T09:17:13.825Z,73.01
2018-01-22T09:18:27.972Z,73.01
2018-01-22T09:19:29.832Z,73.01
2018-01-22T09:20:31.693Z,73.11
2018-01-22T09:21:33.562Z,72.53
2018-01-22T09:22:35.359Z,72.16
2018-01-22T09:23:37.157Z,71.87
2018-01-22T09:24:39.024Z,71.87
2018-01-22T09:25:40.918Z,72.06
2018-01-22T09:26:42.794Z,71.87
2018-01-22T09:27:56.976Z,71.87
2018-01-22T09:28:58.843Z,72.34
2018-01-22T09:30:00.708Z,72.44
2018-01-22T09:31:02.564Z,72.25
2018-01-22T09:32:04.372Z,72.16
2018-01-22T09:33:06.173Z,72.16
2018-01-22T09:34:08.037Z,72.34
2018-01-22T09:35:09.922Z,72.63
2018-01-22T09:36:11.784Z,72.34
2018-01-22T09:37:25.972Z,71.87
2018-01-22T09:38:27.857Z,71.69
2018-01-22T09:39:29.746Z,71.81
2018-01-22T09:40:31.635Z,71.44
2018-01-22T09:41:33.435Z,71.25
2018-01-22T09:42:35.256Z,70.68
2018-01-22T09:43:37.140Z,70.30
2018-01-22T09:44:39.002Z,70.39
2018-01-22T09:45:40.862Z,70.30
2018-01-22T09:46:55.041Z,69.73
2018-01-22T09:47:56.908Z,69.54
2018-01-22T09:48:58.794Z,69.35
2018-01-22T09:50:00.656Z,69.26
2018-01-22T09:51:02.461Z,68.69
2018-01-22T09:52:04.286Z,69.07
2018-01-22T09:53:06.174Z,68.69
2018-01-22T09:54:08.061Z,68.21
2018-01-22T09:55:09.923Z,67.74
2018-01-22T09:56:24.052Z,67.65
2018-01-22T09:57:25.919Z,67.93
2018-01-22T09:58:27.803Z,67.36
2018-01-22T09:59:29.706Z,67.36
2018-01-22T10:00:31.484Z,67.08
2018-01-22T10:01:33.285Z,67.18
2018-01-22T10:02:35.152Z,67.36
2018-01-22T10:03:37.042Z,67.27
2018-01-22T10:04:38.930Z,67.08
2018-01-22T10:05:53.086Z,67.18
2018-01-22T10:06:54.968Z,67.74
2018-01-22T10:07:56.836Z,67.74
2018-01-22T10:08:58.707Z,67.83
2018-01-22T10:10:00.522Z,67.74
2018-01-22T10:11:02.326Z,67.83
2018-01-22T10:12:04.212Z,67.83
2018-01-22T10:13:06.103Z,68.40
2018-01-22T10:14:07.986Z,68.21
2018-01-22T10:15:22.119Z,68.40
2018-01-22T10:16:24.001Z,68.02
2018-01-22T10:17:25.866Z,68.21
2018-01-22T10:18:27.733Z,67.83
2018-01-22T10:19:29.533Z,67.74
2018-01-22T10:20:31.329Z,67.83
2018-01-22T10:21:33.194Z,67.65
2018-01-22T10:22:35.067Z,67.93
2018-01-22T10:23:36.952Z,67.18
2018-01-22T10:24:51.108Z,67.46
2018-01-22T10:25:52.994Z,67.18
2018-01-22T10:26:54.855Z,67.27
2018-01-22T10:27:56.716Z,67.55
2018-01-22T10:28:58.526Z,67.18
2018-01-22T10:30:00.349Z,67.83
2018-01-22T10:31:02.232Z,68.02
2018-01-22T10:32:04.117Z,67.83
2018-01-22T10:33:05.981Z,67.93
2018-01-22T10:34:20.112Z,67.65
2018-01-22T10:35:21.975Z,67.83
2018-01-22T10:36:23.839Z,67.74
2018-01-22T10:37:25.700Z,67.55
2018-01-22T10:38:27.505Z,67.36
2018-01-22T10:39:29.326Z,66.60
2018-01-22T10:40:31.208Z,66.89
2018-01-22T10:41:33.071Z,66.89
2018-01-22T10:42:34.931Z,67.36
2018-01-22T10:43:49.079Z,67.08
2018-01-22T10:44:50.931Z,67.18
2018-01-22T10:45:52.796Z,67.18
2018-01-22T10:46:54.661Z,67.27
2018-01-22T10:47:56.492Z,67.18
2018-01-22T10:48:58.314Z,67.08
2018-01-22T10:50:00.155Z,66.99
2018-01-22T10:51:01.972Z,67.27
2018-01-22T10:52:03.776Z,67.27
2018-01-22T10:53:17.931Z,67.18
2018-01-22T10:54:19.815Z,67.55
2018-01-22T10:55:21.698Z,66.89
2018-01-22T10:56:23.564Z,66.32
2018-01-22T10:57:25.374Z,65.94
2018-01-22T10:58:27.191Z,65.88
2018-01-22T10:59:29.062Z,65.69
2018-01-22T11:00:30.927Z,65.59
2018-01-22T11:01:32.809Z,65.22
2018-01-22T11:02:46.939Z,64.93
2018-01-22T11:03:48.804Z,65.22
2018-01-22T11:04:50.691Z,65.03
2018-01-22T11:05:52.553Z,64.55
2018-01-22T11:06:54.360Z,64.17
2018-01-22T11:07:56.184Z,64.08
2018-01-22T11:08:58.045Z,64.36
2018-01-22T11:09:59.932Z,64.65
2018-01-22T11:11:01.797Z,64.17
2018-01-22T11:12:15.953Z,64.17
2018-01-22T11:13:17.841Z,64.17
2018-01-22T11:14:19.721Z,64.46
2018-01-22T11:15:21.591Z,64.59
2018-01-22T11:16:23.414Z,64.68
2018-01-22T11:17:25.211Z,64.20
2018-01-22T11:18:27.081Z,63.64
2018-01-22T11:19:28.947Z,63.26
2018-01-22T11:20:30.830Z,62.97
2018-01-22T11:21:45.014Z,62.50
2018-01-22T11:22:46.883Z,61.93
2018-01-22T11:23:48.771Z,61.55
2018-01-22T11:24:50.656Z,61.20
2018-01-22T11:25:52.456Z,61.30
2018-01-22T11:26:54.260Z,61.49
2018-01-22T11:27:56.142Z,60.92
2018-01-22T11:28:58.016Z,60.63
2018-01-22T11:29:59.898Z,60.73
2018-01-22T11:31:14.035Z,60.53
2018-01-22T11:32:15.922Z,60.25
2018-01-22T11:33:17.794Z,59.71
2018-01-22T11:34:19.668Z,59.14
2018-01-22T11:35:21.464Z,59.43
2018-01-22T11:36:23.262Z,59.14
2018-01-22T11:37:25.148Z,58.95
2018-01-22T11:38:27.044Z,58.39
2018-01-22T11:39:28.911Z,58.29
2018-01-22T11:40:43.050Z,58.48
2018-01-22T11:41:44.935Z,58.48
2018-01-22T11:42:46.820Z,58.45
2018-01-22T11:43:48.681Z,58.73
2018-01-22T11:44:50.487Z,59.02
2018-01-22T11:45:52.286Z,59.02
2018-01-22T11:46:54.156Z,58.73
2018-01-22T11:47:56.049Z,58.36
2018-01-22T11:48:57.913Z,58.48
2018-01-22T11:50:12.047Z,58.00
2018-01-22T11:51:13.934Z,57.53
2018-01-22T11:52:15.823Z,57.06
2018-01-22T11:53:17.709Z,57.06
2018-01-22T11:54:19.533Z,56.49
2018-01-22T11:55:21.336Z,56.39
2018-01-22T11:56:23.201Z,56.10
2018-01-22T11:57:25.088Z,56.01
2018-01-22T11:58:26.950Z,56.49
2018-01-22T11:59:41.083Z,56.77
2018-01-22T12:00:42.954Z,56.58
2018-01-22T12:01:44.843Z,56.49
2018-01-22T12:02:46.730Z,56.01
2018-01-22T12:03:48.544Z,56.10
2018-01-22T12:04:50.340Z,56.58
2018-01-22T12:05:52.226Z,56.20
2018-01-22T12:06:54.090Z,56.77
2018-01-22T12:07:55.958Z,56.77
2018-01-22T12:09:10.114Z,56.77
2018-01-22T12:10:12.000Z,56.77
2018-01-22T12:11:13.895Z,56.10
2018-01-22T12:12:15.782Z,56.39
2018-01-22T12:13:17.605Z,56.39
2018-01-22T12:14:19.409Z,56.10
2018-01-22T12:15:21.274Z,56.20
2018-01-22T12:16:23.165Z,56.77
2018-01-22T12:17:25.048Z,56.58
2018-01-22T12:18:39.183Z,56.84
2018-01-22T12:19:41.081Z,57.12
2018-01-22T12:20:42.946Z,57.34
2018-01-22T12:21:44.813Z,57.03
2018-01-22T12:22:46.618Z,56.36
2018-01-22T12:23:48.439Z,56.55
2018-01-22T12:24:50.325Z,56.74
2018-01-22T12:25:52.192Z,57.03
2018-01-22T12:26:54.082Z,57.21
2018-01-22T12:28:08.235Z,57.88
2018-01-22T12:29:10.101Z,58.17
2018-01-22T12:30:11.990Z,58.54
2018-01-22T12:31:13.856Z,58.64
2018-01-22T12:32:15.681Z,59.02
2018-01-22T12:33:17.484Z,58.54
2018-01-22T12:34:19.373Z,58.83
2018-01-22T12:35:21.256Z,58.99
2018-01-22T12:36:23.128Z,58.99
2018-01-22T12:37:37.285Z,59.18
2018-01-22T12:38:39.172Z,59.08
2018-01-22T12:39:41.067Z,59.08
2018-01-22T12:40:42.949Z,59.66
2018-01-22T12:41:44.759Z,59.27
2018-01-22T12:42:46.576Z,59.84
2018-01-22T12:43:48.440Z,59.18
2018-01-22T12:44:50.330Z,59.08
2018-01-22T12:45:52.193Z,59.27
2018-01-22T12:47:06.351Z,59.66
2018-01-22T12:48:08.230Z,59.94
2018-01-22T12:49:10.081Z,59.94
2018-01-22T12:50:11.973Z,59.46
2018-01-22T12:51:13.797Z,59.84
2018-01-22T12:52:15.598Z,60.31
2018-01-22T12:53:17.486Z,60.41
2018-01-22T12:54:19.350Z,60.76
2018-01-22T12:55:21.213Z,60.98
2018-01-22T12:56:35.349Z,60.60
2018-01-22T12:57:37.230Z,61.17
2018-01-22T12:58:39.100Z,61.55
2018-01-22T12:59:40.983Z,61.43
2018-01-22T13:00:42.790Z,61.05
2018-01-22T13:01:44.601Z,61.08
2018-01-22T13:02:46.481Z,61.46
2018-01-22T13:03:48.343Z,61.65
2018-01-22T13:04:50.212Z,61.08
2018-01-22T13:06:04.368Z,60.50
2018-01-22T13:07:06.257Z,60.98
2018-01-22T13:08:08.150Z,60.50
2018-01-22T13:09:10.029Z,60.70
2018-01-22T13:10:11.830Z,60.89
2018-01-22T13:11:13.630Z,60.98
2018-01-22T13:12:15.495Z,60.70
2018-01-22T13:13:17.374Z,60.98
2018-01-22T13:14:19.254Z,60.50
2018-01-22T13:15:33.404Z,60.31
2018-01-22T13:16:35.276Z,60.31
2018-01-22T13:17:37.164Z,60.89
2018-01-22T13:18:39.029Z,60.79
2018-01-22T13:19:40.853Z,60.89
2018-01-22T13:20:42.651Z,59.75
2018-01-22T13:21:44.516Z,60.50
2018-01-22T13:22:46.388Z,60.22
2018-01-22T13:23:48.277Z,60.31
2018-01-22T13:25:02.430Z,60.22
2018-01-22T13:26:04.295Z,59.68
2018-01-22T13:27:06.176Z,59.30
2018-01-22T13:28:08.098Z,58.83
2018-01-22T13:29:09.902Z,58.83
2018-01-22T13:30:11.726Z,58.73
2018-01-22T13:31:13.616Z,58.80
2018-01-22T13:32:15.481Z,59.08
2018-01-22T13:33:17.366Z,58.99